sensor_id;sensor_type;location;lat;lon;timestamp;P1;durP1;ratioP1;P2;durP2;ratioP2
18140;SDS011;9196;49.194;12.526;2023-07-29T00:00:07;2.70;;;2.40;;
18140;SDS011;9196;49.194;12.526;2023-07-29T00:02:35;2.90;;;2.70;;
18140;SDS011;9196;49.194;12.526;2023-07-29T00:05:02;2.63;;;2.43;;
18140;SDS011;9196;49.194;12.526;2023-07-29T00:07:31;2.77;;;2.57;;
18140;SDS011;9196;49.194;12.526;2023-07-29T00:09:58;3.73;;;2.20;;
18140;SDS011;9196;49.194;12.526;2023-07-29T00:12:24;2.73;;;2.53;;
18140;SDS011;9196;49.194;12.526;2023-07-29T00:14:51;3.30;;;3.10;;
18140;SDS011;9196;49.194;12.526;2023-07-29T00:17:18;2.00;;;1.90;;
18140;SDS011;9196;49.194;12.526;2023-07-29T00:19:45;2.57;;;2.10;;
18140;SDS011;9196;49.194;12.526;2023-07-29T00:22:12;2.43;;;2.33;;
18140;SDS011;9196;49.194;12.526;2023-07-29T00:24:40;4.40;;;3.00;;
18140;SDS011;9196;49.194;12.526;2023-07-29T00:27:07;6.00;;;3.10;;
18140;SDS011;9196;49.194;12.526;2023-07-29T00:29:34;2.50;;;2.40;;
18140;SDS011;9196;49.194;12.526;2023-07-29T00:32:01;3.60;;;2.70;;
18140;SDS011;9196;49.194;12.526;2023-07-29T00:34:28;2.90;;;2.73;;
18140;SDS011;9196;49.194;12.526;2023-07-29T00:36:55;2.70;;;2.53;;
18140;SDS011;9196;49.194;12.526;2023-07-29T00:39:22;2.73;;;2.53;;
18140;SDS011;9196;49.194;12.526;2023-07-29T00:41:50;3.10;;;2.33;;
18140;SDS011;9196;49.194;12.526;2023-07-29T00:44:17;2.53;;;2.43;;
18140;SDS011;9196;49.194;12.526;2023-07-29T00:46:44;3.27;;;3.07;;
18140;SDS011;9196;49.194;12.526;2023-07-29T00:49:12;5.10;;;3.40;;
18140;SDS011;9196;49.194;12.526;2023-07-29T00:51:39;4.67;;;3.20;;
18140;SDS011;9196;49.194;12.526;2023-07-29T00:54:06;2.97;;;2.77;;
18140;SDS011;9196;49.194;12.526;2023-07-29T00:56:33;3.47;;;2.93;;
18140;SDS011;9196;49.194;12.526;2023-07-29T00:59:02;4.10;;;3.13;;
18140;SDS011;9196;49.194;12.526;2023-07-29T01:01:29;2.77;;;2.67;;
18140;SDS011;9196;49.194;12.526;2023-07-29T01:03:56;2.97;;;2.87;;
18140;SDS011;9196;49.194;12.526;2023-07-29T01:06:26;2.67;;;2.50;;
18140;SDS011;9196;49.194;12.526;2023-07-29T01:09:01;3.77;;;2.83;;
18140;SDS011;9196;49.194;12.526;2023-07-29T01:11:33;3.77;;;3.47;;
18140;SDS011;9196;49.194;12.526;2023-07-29T01:14:08;2.93;;;2.53;;
18140;SDS011;9196;49.194;12.526;2023-07-29T01:16:45;4.10;;;2.90;;
18140;SDS011;9196;49.194;12.526;2023-07-29T01:19:16;3.83;;;3.10;;
18140;SDS011;9196;49.194;12.526;2023-07-29T01:21:58;3.20;;;3.00;;
18140;SDS011;9196;49.194;12.526;2023-07-29T01:24:26;4.33;;;3.10;;
18140;SDS011;9196;49.194;12.526;2023-07-29T01:26:53;2.77;;;2.67;;
18140;SDS011;9196;49.194;12.526;2023-07-29T01:29:20;3.10;;;2.87;;
18140;SDS011;9196;49.194;12.526;2023-07-29T01:31:47;2.90;;;2.70;;
18140;SDS011;9196;49.194;12.526;2023-07-29T01:34:22;2.87;;;2.73;;
18140;SDS011;9196;49.194;12.526;2023-07-29T01:36:53;2.37;;;2.17;;
18140;SDS011;9196;49.194;12.526;2023-07-29T01:39:23;3.13;;;2.93;;
18140;SDS011;9196;49.194;12.526;2023-07-29T01:41:52;2.40;;;2.30;;
18140;SDS011;9196;49.194;12.526;2023-07-29T01:44:20;3.00;;;2.80;;
18140;SDS011;9196;49.194;12.526;2023-07-29T01:46:47;3.27;;;3.07;;
18140;SDS011;9196;49.194;12.526;2023-07-29T01:49:15;2.77;;;2.37;;
18140;SDS011;9196;49.194;12.526;2023-07-29T01:51:42;3.10;;;2.90;;
18140;SDS011;9196;49.194;12.526;2023-07-29T01:54:08;2.67;;;2.47;;
18140;SDS011;9196;49.194;12.526;2023-07-29T01:56:35;3.00;;;2.80;;
18140;SDS011;9196;49.194;12.526;2023-07-29T01:59:03;3.13;;;2.83;;
18140;SDS011;9196;49.194;12.526;2023-07-29T02:01:30;3.20;;;3.00;;
18140;SDS011;9196;49.194;12.526;2023-07-29T02:03:57;3.23;;;2.93;;
18140;SDS011;9196;49.194;12.526;2023-07-29T02:06:24;3.37;;;2.73;;
18140;SDS011;9196;49.194;12.526;2023-07-29T02:08:52;2.50;;;2.40;;
18140;SDS011;9196;49.194;12.526;2023-07-29T02:11:20;2.73;;;2.40;;
18140;SDS011;9196;49.194;12.526;2023-07-29T02:13:52;2.50;;;2.40;;
18140;SDS011;9196;49.194;12.526;2023-07-29T02:16:20;2.43;;;2.17;;
18140;SDS011;9196;49.194;12.526;2023-07-29T02:18:47;2.90;;;2.80;;
18140;SDS011;9196;49.194;12.526;2023-07-29T02:21:15;3.60;;;2.83;;
18140;SDS011;9196;49.194;12.526;2023-07-29T02:23:41;3.10;;;2.90;;
18140;SDS011;9196;49.194;12.526;2023-07-29T02:26:08;3.83;;;3.00;;
18140;SDS011;9196;49.194;12.526;2023-07-29T02:28:35;2.93;;;2.73;;
18140;SDS011;9196;49.194;12.526;2023-07-29T02:31:09;2.80;;;2.60;;
18140;SDS011;9196;49.194;12.526;2023-07-29T02:33:39;5.00;;;3.10;;
18140;SDS011;9196;49.194;12.526;2023-07-29T02:36:06;4.63;;;2.50;;
18140;SDS011;9196;49.194;12.526;2023-07-29T02:38:33;3.57;;;2.17;;
18140;SDS011;9196;49.194;12.526;2023-07-29T02:41:00;3.13;;;2.93;;
18140;SDS011;9196;49.194;12.526;2023-07-29T02:43:26;4.10;;;2.93;;
18140;SDS011;9196;49.194;12.526;2023-07-29T02:45:53;2.33;;;2.23;;
18140;SDS011;9196;49.194;12.526;2023-07-29T02:48:20;3.00;;;2.80;;
18140;SDS011;9196;49.194;12.526;2023-07-29T02:50:48;3.27;;;3.07;;
18140;SDS011;9196;49.194;12.526;2023-07-29T02:53:15;3.13;;;2.93;;
18140;SDS011;9196;49.194;12.526;2023-07-29T02:55:42;3.20;;;3.00;;
18140;SDS011;9196;49.194;12.526;2023-07-29T02:58:08;3.23;;;3.03;;
18140;SDS011;9196;49.194;12.526;2023-07-29T03:00:35;3.00;;;2.80;;
18140;SDS011;9196;49.194;12.526;2023-07-29T03:03:02;2.60;;;2.50;;
18140;SDS011;9196;49.194;12.526;2023-07-29T03:05:29;3.17;;;2.87;;
18140;SDS011;9196;49.194;12.526;2023-07-29T03:07:57;2.97;;;2.63;;
18140;SDS011;9196;49.194;12.526;2023-07-29T03:10:24;2.93;;;2.73;;
18140;SDS011;9196;49.194;12.526;2023-07-29T03:12:53;2.90;;;2.70;;
18140;SDS011;9196;49.194;12.526;2023-07-29T03:15:22;4.03;;;2.70;;
18140;SDS011;9196;49.194;12.526;2023-07-29T03:17:50;2.70;;;2.60;;
18140;SDS011;9196;49.194;12.526;2023-07-29T03:20:17;3.27;;;3.03;;
18140;SDS011;9196;49.194;12.526;2023-07-29T03:22:44;2.93;;;2.73;;
18140;SDS011;9196;49.194;12.526;2023-07-29T03:25:12;3.30;;;3.10;;
18140;SDS011;9196;49.194;12.526;2023-07-29T03:27:39;2.50;;;2.40;;
18140;SDS011;9196;49.194;12.526;2023-07-29T03:30:06;2.83;;;2.63;;
18140;SDS011;9196;49.194;12.526;2023-07-29T03:32:33;3.07;;;2.80;;
18140;SDS011;9196;49.194;12.526;2023-07-29T03:35:00;3.10;;;2.80;;
18140;SDS011;9196;49.194;12.526;2023-07-29T03:37:26;3.70;;;2.63;;
18140;SDS011;9196;49.194;12.526;2023-07-29T03:39:53;2.83;;;2.67;;
18140;SDS011;9196;49.194;12.526;2023-07-29T03:42:21;2.53;;;2.43;;
18140;SDS011;9196;49.194;12.526;2023-07-29T03:44:48;2.60;;;2.40;;
18140;SDS011;9196;49.194;12.526;2023-07-29T03:47:15;2.80;;;2.70;;
18140;SDS011;9196;49.194;12.526;2023-07-29T03:49:42;3.03;;;2.87;;
18140;SDS011;9196;49.194;12.526;2023-07-29T03:52:08;3.70;;;3.40;;
18140;SDS011;9196;49.194;12.526;2023-07-29T03:54:35;3.20;;;2.90;;
18140;SDS011;9196;49.194;12.526;2023-07-29T03:57:02;3.93;;;2.90;;
18140;SDS011;9196;49.194;12.526;2023-07-29T03:59:31;3.47;;;3.23;;
18140;SDS011;9196;49.194;12.526;2023-07-29T04:01:58;2.90;;;2.80;;
18140;SDS011;9196;49.194;12.526;2023-07-29T04:04:25;3.57;;;3.37;;
18140;SDS011;9196;49.194;12.526;2023-07-29T04:06:51;3.60;;;3.23;;
18140;SDS011;9196;49.194;12.526;2023-07-29T04:09:18;4.13;;;3.17;;
18140;SDS011;9196;49.194;12.526;2023-07-29T04:11:45;3.03;;;2.83;;
18140;SDS011;9196;49.194;12.526;2023-07-29T04:14:12;3.17;;;2.97;;
18140;SDS011;9196;49.194;12.526;2023-07-29T04:16:40;3.00;;;2.73;;
18140;SDS011;9196;49.194;12.526;2023-07-29T04:19:07;4.47;;;3.20;;
18140;SDS011;9196;49.194;12.526;2023-07-29T04:21:34;3.50;;;3.10;;
18140;SDS011;9196;49.194;12.526;2023-07-29T04:24:01;4.50;;;3.80;;
18140;SDS011;9196;49.194;12.526;2023-07-29T04:26:27;3.20;;;3.00;;
18140;SDS011;9196;49.194;12.526;2023-07-29T04:28:54;9.40;;;4.53;;
18140;SDS011;9196;49.194;12.526;2023-07-29T04:31:21;3.57;;;3.37;;
18140;SDS011;9196;49.194;12.526;2023-07-29T04:33:49;6.27;;;5.77;;
18140;SDS011;9196;49.194;12.526;2023-07-29T04:36:16;4.30;;;3.90;;
18140;SDS011;9196;49.194;12.526;2023-07-29T04:38:43;8.43;;;4.00;;
18140;SDS011;9196;49.194;12.526;2023-07-29T04:41:10;3.50;;;3.27;;
18140;SDS011;9196;49.194;12.526;2023-07-29T04:43:36;4.80;;;4.40;;
18140;SDS011;9196;49.194;12.526;2023-07-29T04:46:06;4.33;;;3.97;;
18140;SDS011;9196;49.194;12.526;2023-07-29T04:48:33;4.03;;;3.77;;
18140;SDS011;9196;49.194;12.526;2023-07-29T04:51:01;3.77;;;3.47;;
18140;SDS011;9196;49.194;12.526;2023-07-29T04:53:28;10.63;;;5.17;;
18140;SDS011;9196;49.194;12.526;2023-07-29T04:55:55;7.50;;;4.37;;
18140;SDS011;9196;49.194;12.526;2023-07-29T04:58:22;5.33;;;4.40;;
18140;SDS011;9196;49.194;12.526;2023-07-29T05:00:49;5.37;;;4.97;;
18140;SDS011;9196;49.194;12.526;2023-07-29T05:03:16;5.67;;;4.23;;
18140;SDS011;9196;49.194;12.526;2023-07-29T05:05:42;5.27;;;4.87;;
18140;SDS011;9196;49.194;12.526;2023-07-29T05:08:10;4.30;;;4.00;;
18140;SDS011;9196;49.194;12.526;2023-07-29T05:10:37;5.30;;;4.50;;
18140;SDS011;9196;49.194;12.526;2023-07-29T05:13:04;4.43;;;4.10;;
18140;SDS011;9196;49.194;12.526;2023-07-29T05:15:31;4.33;;;4.03;;
18140;SDS011;9196;49.194;12.526;2023-07-29T05:17:58;4.50;;;4.20;;
18140;SDS011;9196;49.194;12.526;2023-07-29T05:20:25;6.20;;;5.17;;
18140;SDS011;9196;49.194;12.526;2023-07-29T05:22:51;7.13;;;4.90;;
18140;SDS011;9196;49.194;12.526;2023-07-29T05:25:20;5.80;;;5.30;;
18140;SDS011;9196;49.194;12.526;2023-07-29T05:27:46;5.50;;;4.53;;
18140;SDS011;9196;49.194;12.526;2023-07-29T05:30:13;5.57;;;5.07;;
18140;SDS011;9196;49.194;12.526;2023-07-29T05:32:40;7.10;;;5.03;;
18140;SDS011;9196;49.194;12.526;2023-07-29T05:35:07;7.27;;;6.57;;
18140;SDS011;9196;49.194;12.526;2023-07-29T05:37:35;7.80;;;7.13;;
18140;SDS011;9196;49.194;12.526;2023-07-29T05:40:04;7.83;;;7.23;;
18140;SDS011;9196;49.194;12.526;2023-07-29T05:42:33;9.00;;;8.10;;
18140;SDS011;9196;49.194;12.526;2023-07-29T05:45:00;8.97;;;8.27;;
18140;SDS011;9196;49.194;12.526;2023-07-29T05:47:27;8.00;;;7.33;;
18140;SDS011;9196;49.194;12.526;2023-07-29T05:49:54;8.47;;;7.87;;
18140;SDS011;9196;49.194;12.526;2023-07-29T05:52:21;8.83;;;8.03;;
18140;SDS011;9196;49.194;12.526;2023-07-29T05:54:48;7.80;;;7.10;;
18140;SDS011;9196;49.194;12.526;2023-07-29T05:57:15;8.93;;;7.73;;
18140;SDS011;9196;49.194;12.526;2023-07-29T05:59:43;9.20;;;8.40;;
18140;SDS011;9196;49.194;12.526;2023-07-29T06:02:10;8.63;;;7.73;;
18140;SDS011;9196;49.194;12.526;2023-07-29T06:04:37;8.27;;;7.67;;
18140;SDS011;9196;49.194;12.526;2023-07-29T06:07:04;8.20;;;7.60;;
18140;SDS011;9196;49.194;12.526;2023-07-29T06:09:31;9.00;;;8.20;;
18140;SDS011;9196;49.194;12.526;2023-07-29T06:11:58;7.60;;;7.00;;
18140;SDS011;9196;49.194;12.526;2023-07-29T06:14:25;7.47;;;6.70;;
18140;SDS011;9196;49.194;12.526;2023-07-29T06:16:53;7.77;;;6.97;;
18140;SDS011;9196;49.194;12.526;2023-07-29T06:19:20;8.80;;;8.10;;
18140;SDS011;9196;49.194;12.526;2023-07-29T06:21:47;8.30;;;7.60;;
18140;SDS011;9196;49.194;12.526;2023-07-29T06:24:14;9.10;;;8.40;;
18140;SDS011;9196;49.194;12.526;2023-07-29T06:26:41;8.73;;;8.00;;
18140;SDS011;9196;49.194;12.526;2023-07-29T06:29:08;9.03;;;8.33;;
18140;SDS011;9196;49.194;12.526;2023-07-29T06:31:35;9.00;;;8.30;;
18140;SDS011;9196;49.194;12.526;2023-07-29T06:34:03;10.13;;;7.40;;
18140;SDS011;9196;49.194;12.526;2023-07-29T06:36:30;6.60;;;5.97;;
18140;SDS011;9196;49.194;12.526;2023-07-29T06:38:57;6.90;;;6.20;;
18140;SDS011;9196;49.194;12.526;2023-07-29T06:41:23;8.97;;;6.43;;
18140;SDS011;9196;49.194;12.526;2023-07-29T06:43:50;6.67;;;6.17;;
18140;SDS011;9196;49.194;12.526;2023-07-29T06:46:17;8.60;;;7.80;;
18140;SDS011;9196;49.194;12.526;2023-07-29T06:48:44;17.20;;;8.43;;
18140;SDS011;9196;49.194;12.526;2023-07-29T06:51:12;8.97;;;8.17;;
18140;SDS011;9196;49.194;12.526;2023-07-29T06:53:39;8.23;;;7.50;;
18140;SDS011;9196;49.194;12.526;2023-07-29T06:56:06;7.90;;;7.30;;
18140;SDS011;9196;49.194;12.526;2023-07-29T06:58:32;6.50;;;6.00;;
18140;SDS011;9196;49.194;12.526;2023-07-29T07:01:00;7.27;;;6.73;;
18140;SDS011;9196;49.194;12.526;2023-07-29T07:03:28;7.60;;;7.00;;
18140;SDS011;9196;49.194;12.526;2023-07-29T07:05:55;6.93;;;6.43;;
18140;SDS011;9196;49.194;12.526;2023-07-29T07:08:23;7.47;;;6.90;;
18140;SDS011;9196;49.194;12.526;2023-07-29T07:10:50;9.50;;;7.00;;
18140;SDS011;9196;49.194;12.526;2023-07-29T07:13:17;6.03;;;5.47;;
18140;SDS011;9196;49.194;12.526;2023-07-29T07:15:44;5.40;;;4.97;;
18140;SDS011;9196;49.194;12.526;2023-07-29T07:18:11;5.50;;;5.00;;
18140;SDS011;9196;49.194;12.526;2023-07-29T07:20:38;6.57;;;4.83;;
18140;SDS011;9196;49.194;12.526;2023-07-29T07:23:04;5.73;;;5.23;;
18140;SDS011;9196;49.194;12.526;2023-07-29T07:25:37;5.27;;;4.97;;
18140;SDS011;9196;49.194;12.526;2023-07-29T07:28:04;6.53;;;5.93;;
18140;SDS011;9196;49.194;12.526;2023-07-29T07:30:30;5.57;;;5.20;;
18140;SDS011;9196;49.194;12.526;2023-07-29T07:32:57;5.63;;;5.23;;
18140;SDS011;9196;49.194;12.526;2023-07-29T07:35:24;6.23;;;5.73;;
18140;SDS011;9196;49.194;12.526;2023-07-29T07:37:51;6.00;;;5.60;;
18140;SDS011;9196;49.194;12.526;2023-07-29T07:40:17;5.87;;;5.10;;
18140;SDS011;9196;49.194;12.526;2023-07-29T07:42:45;5.73;;;5.37;;
18140;SDS011;9196;49.194;12.526;2023-07-29T07:45:12;5.50;;;5.00;;
18140;SDS011;9196;49.194;12.526;2023-07-29T07:47:39;4.63;;;4.27;;
18140;SDS011;9196;49.194;12.526;2023-07-29T07:50:06;4.83;;;4.43;;
18140;SDS011;9196;49.194;12.526;2023-07-29T07:52:33;4.73;;;4.43;;
18140;SDS011;9196;49.194;12.526;2023-07-29T07:55:00;4.70;;;4.10;;
18140;SDS011;9196;49.194;12.526;2023-07-29T07:57:27;7.07;;;3.70;;
18140;SDS011;9196;49.194;12.526;2023-07-29T07:59:55;3.93;;;3.63;;
18140;SDS011;9196;49.194;12.526;2023-07-29T08:02:22;3.63;;;3.33;;
18140;SDS011;9196;49.194;12.526;2023-07-29T08:04:48;3.47;;;3.27;;
18140;SDS011;9196;49.194;12.526;2023-07-29T08:07:15;3.70;;;3.40;;
18140;SDS011;9196;49.194;12.526;2023-07-29T08:09:42;3.40;;;3.20;;
18140;SDS011;9196;49.194;12.526;2023-07-29T08:12:09;3.60;;;3.40;;
18140;SDS011;9196;49.194;12.526;2023-07-29T08:14:36;3.67;;;3.43;;
18140;SDS011;9196;49.194;12.526;2023-07-29T08:17:04;3.33;;;3.10;;
18140;SDS011;9196;49.194;12.526;2023-07-29T08:19:31;3.43;;;3.10;;
18140;SDS011;9196;49.194;12.526;2023-07-29T08:22:00;4.40;;;3.07;;
18140;SDS011;9196;49.194;12.526;2023-07-29T08:24:28;3.93;;;3.30;;
18140;SDS011;9196;49.194;12.526;2023-07-29T08:26:55;5.50;;;4.10;;
18140;SDS011;9196;49.194;12.526;2023-07-29T08:29:22;4.00;;;3.70;;
18140;SDS011;9196;49.194;12.526;2023-07-29T08:31:48;4.37;;;3.57;;
18140;SDS011;9196;49.194;12.526;2023-07-29T08:34:17;5.87;;;3.60;;
18140;SDS011;9196;49.194;12.526;2023-07-29T08:36:44;3.07;;;2.87;;
18140;SDS011;9196;49.194;12.526;2023-07-29T08:39:11;5.50;;;3.50;;
18140;SDS011;9196;49.194;12.526;2023-07-29T08:41:41;4.70;;;3.60;;
18140;SDS011;9196;49.194;12.526;2023-07-29T08:44:18;4.90;;;3.70;;
18140;SDS011;9196;49.194;12.526;2023-07-29T08:46:48;3.63;;;3.20;;
18140;SDS011;9196;49.194;12.526;2023-07-29T08:49:15;4.10;;;3.80;;
18140;SDS011;9196;49.194;12.526;2023-07-29T08:51:45;4.30;;;3.90;;
18140;SDS011;9196;49.194;12.526;2023-07-29T08:54:13;4.40;;;4.00;;
18140;SDS011;9196;49.194;12.526;2023-07-29T08:56:40;5.00;;;4.47;;
18140;SDS011;9196;49.194;12.526;2023-07-29T08:59:08;14.73;;;6.03;;
18140;SDS011;9196;49.194;12.526;2023-07-29T09:01:35;2.90;;;2.47;;
18140;SDS011;9196;49.194;12.526;2023-07-29T09:04:03;3.13;;;2.67;;
18140;SDS011;9196;49.194;12.526;2023-07-29T09:06:30;2.40;;;2.17;;
18140;SDS011;9196;49.194;12.526;2023-07-29T09:08:59;2.60;;;2.40;;
18140;SDS011;9196;49.194;12.526;2023-07-29T09:11:27;8.53;;;1.90;;
18140;SDS011;9196;49.194;12.526;2023-07-29T09:13:54;3.80;;;2.43;;
18140;SDS011;9196;49.194;12.526;2023-07-29T09:16:21;6.30;;;3.73;;
18140;SDS011;9196;49.194;12.526;2023-07-29T09:18:49;3.23;;;2.20;;
18140;SDS011;9196;49.194;12.526;2023-07-29T09:21:16;2.50;;;1.90;;
18140;SDS011;9196;49.194;12.526;2023-07-29T09:23:44;7.60;;;4.47;;
18140;SDS011;9196;49.194;12.526;2023-07-29T09:26:12;3.87;;;2.70;;
18140;SDS011;9196;49.194;12.526;2023-07-29T09:28:39;10.10;;;3.60;;
18140;SDS011;9196;49.194;12.526;2023-07-29T09:31:06;3.33;;;3.03;;
18140;SDS011;9196;49.194;12.526;2023-07-29T09:33:44;1.90;;;1.80;;
18140;SDS011;9196;49.194;12.526;2023-07-29T09:36:11;2.97;;;1.97;;
18140;SDS011;9196;49.194;12.526;2023-07-29T09:38:38;2.27;;;2.07;;
18140;SDS011;9196;49.194;12.526;2023-07-29T09:41:05;1.70;;;1.60;;
18140;SDS011;9196;49.194;12.526;2023-07-29T09:43:33;2.10;;;2.00;;
18140;SDS011;9196;49.194;12.526;2023-07-29T09:46:01;4.40;;;2.30;;
18140;SDS011;9196;49.194;12.526;2023-07-29T09:48:32;1.93;;;1.73;;
18140;SDS011;9196;49.194;12.526;2023-07-29T09:50:59;1.80;;;1.70;;
18140;SDS011;9196;49.194;12.526;2023-07-29T09:53:26;3.33;;;1.93;;
18140;SDS011;9196;49.194;12.526;2023-07-29T09:55:53;2.47;;;1.63;;
18140;SDS011;9196;49.194;12.526;2023-07-29T09:58:26;2.87;;;1.90;;
18140;SDS011;9196;49.194;12.526;2023-07-29T10:00:54;1.47;;;1.40;;
18140;SDS011;9196;49.194;12.526;2023-07-29T10:03:21;1.37;;;1.27;;
18140;SDS011;9196;49.194;12.526;2023-07-29T10:05:48;1.50;;;1.40;;
18140;SDS011;9196;49.194;12.526;2023-07-29T10:08:16;0.70;;;0.70;;
18140;SDS011;9196;49.194;12.526;2023-07-29T10:10:44;1.20;;;1.20;;
18140;SDS011;9196;49.194;12.526;2023-07-29T10:13:11;1.70;;;1.60;;
18140;SDS011;9196;49.194;12.526;2023-07-29T10:15:39;1.30;;;1.30;;
18140;SDS011;9196;49.194;12.526;2023-07-29T10:18:07;1.40;;;1.30;;
18140;SDS011;9196;49.194;12.526;2023-07-29T10:20:34;1.43;;;1.30;;
18140;SDS011;9196;49.194;12.526;2023-07-29T10:23:01;1.87;;;1.43;;
18140;SDS011;9196;49.194;12.526;2023-07-29T10:25:34;1.40;;;1.40;;
18140;SDS011;9196;49.194;12.526;2023-07-29T10:28:05;4.73;;;1.60;;
18140;SDS011;9196;49.194;12.526;2023-07-29T10:30:33;1.57;;;1.47;;
18140;SDS011;9196;49.194;12.526;2023-07-29T10:33:01;1.60;;;1.50;;
18140;SDS011;9196;49.194;12.526;2023-07-29T10:35:31;1.70;;;1.53;;
18140;SDS011;9196;49.194;12.526;2023-07-29T10:37:59;1.70;;;1.47;;
18140;SDS011;9196;49.194;12.526;2023-07-29T10:40:27;1.60;;;1.50;;
18140;SDS011;9196;49.194;12.526;2023-07-29T10:43:10;1.40;;;1.30;;
18140;SDS011;9196;49.194;12.526;2023-07-29T10:45:40;1.50;;;1.40;;
18140;SDS011;9196;49.194;12.526;2023-07-29T10:48:10;5.70;;;2.40;;
18140;SDS011;9196;49.194;12.526;2023-07-29T10:50:38;1.90;;;1.80;;
18140;SDS011;9196;49.194;12.526;2023-07-29T10:53:05;1.97;;;1.87;;
18140;SDS011;9196;49.194;12.526;2023-07-29T10:55:32;1.67;;;1.57;;
18140;SDS011;9196;49.194;12.526;2023-07-29T10:58:05;2.40;;;1.77;;
18140;SDS011;9196;49.194;12.526;2023-07-29T11:00:33;3.77;;;1.70;;
18140;SDS011;9196;49.194;12.526;2023-07-29T11:03:00;1.60;;;1.50;;
18140;SDS011;9196;49.194;12.526;2023-07-29T11:05:42;2.50;;;2.33;;
18140;SDS011;9196;49.194;12.526;2023-07-29T11:08:20;2.90;;;1.73;;
18140;SDS011;9196;49.194;12.526;2023-07-29T11:10:59;2.60;;;2.30;;
18140;SDS011;9196;49.194;12.526;2023-07-29T11:13:29;2.60;;;2.03;;
18140;SDS011;9196;49.194;12.526;2023-07-29T11:15:56;2.87;;;2.60;;
18140;SDS011;9196;49.194;12.526;2023-07-29T11:18:26;1.70;;;1.60;;
18140;SDS011;9196;49.194;12.526;2023-07-29T11:20:56;3.10;;;2.50;;
18140;SDS011;9196;49.194;12.526;2023-07-29T11:23:27;3.00;;;2.80;;
18140;SDS011;9196;49.194;12.526;2023-07-29T11:25:56;2.13;;;2.00;;
18140;SDS011;9196;49.194;12.526;2023-07-29T11:28:23;1.80;;;1.70;;
18140;SDS011;9196;49.194;12.526;2023-07-29T11:30:50;2.00;;;1.90;;
18140;SDS011;9196;49.194;12.526;2023-07-29T11:33:17;2.20;;;2.00;;
18140;SDS011;9196;49.194;12.526;2023-07-29T11:35:46;3.73;;;2.30;;
18140;SDS011;9196;49.194;12.526;2023-07-29T11:38:16;3.07;;;2.87;;
18140;SDS011;9196;49.194;12.526;2023-07-29T11:40:43;2.60;;;2.40;;
18140;SDS011;9196;49.194;12.526;2023-07-29T11:43:20;2.60;;;2.40;;
18140;SDS011;9196;49.194;12.526;2023-07-29T11:45:47;2.40;;;2.20;;
18140;SDS011;9196;49.194;12.526;2023-07-29T11:48:14;2.60;;;2.40;;
18140;SDS011;9196;49.194;12.526;2023-07-29T11:50:41;3.67;;;2.70;;
18140;SDS011;9196;49.194;12.526;2023-07-29T11:53:08;2.40;;;2.27;;
18140;SDS011;9196;49.194;12.526;2023-07-29T11:55:36;3.70;;;3.40;;
18140;SDS011;9196;49.194;12.526;2023-07-29T11:58:03;3.60;;;2.70;;
18140;SDS011;9196;49.194;12.526;2023-07-29T12:00:31;3.50;;;3.20;;
18140;SDS011;9196;49.194;12.526;2023-07-29T12:02:58;2.57;;;2.47;;
18140;SDS011;9196;49.194;12.526;2023-07-29T12:05:25;2.70;;;2.50;;
18140;SDS011;9196;49.194;12.526;2023-07-29T12:07:52;3.10;;;2.90;;
18140;SDS011;9196;49.194;12.526;2023-07-29T12:10:19;3.13;;;2.93;;
18140;SDS011;9196;49.194;12.526;2023-07-29T12:12:49;5.50;;;3.20;;
18140;SDS011;9196;49.194;12.526;2023-07-29T12:15:22;3.70;;;2.90;;
18140;SDS011;9196;49.194;12.526;2023-07-29T12:17:52;4.00;;;3.30;;
18140;SDS011;9196;49.194;12.526;2023-07-29T12:20:21;2.93;;;2.60;;
18140;SDS011;9196;49.194;12.526;2023-07-29T12:22:51;2.13;;;2.03;;
18140;SDS011;9196;49.194;12.526;2023-07-29T12:25:18;1.63;;;1.53;;
18140;SDS011;9196;49.194;12.526;2023-07-29T12:27:45;1.93;;;1.83;;
18140;SDS011;9196;49.194;12.526;2023-07-29T12:30:14;1.97;;;1.87;;
18140;SDS011;9196;49.194;12.526;2023-07-29T12:32:45;1.90;;;1.80;;
18140;SDS011;9196;49.194;12.526;2023-07-29T12:35:12;1.50;;;1.40;;
18140;SDS011;9196;49.194;12.526;2023-07-29T12:37:39;1.63;;;1.60;;
18140;SDS011;9196;49.194;12.526;2023-07-29T12:40:08;1.60;;;1.53;;
18140;SDS011;9196;49.194;12.526;2023-07-29T12:42:49;1.93;;;1.83;;
18140;SDS011;9196;49.194;12.526;2023-07-29T12:45:16;2.47;;;1.90;;
18140;SDS011;9196;49.194;12.526;2023-07-29T12:47:43;1.90;;;1.80;;
18140;SDS011;9196;49.194;12.526;2023-07-29T12:50:11;2.40;;;2.20;;
18140;SDS011;9196;49.194;12.526;2023-07-29T12:52:38;3.00;;;2.17;;
18140;SDS011;9196;49.194;12.526;2023-07-29T12:55:05;1.77;;;1.67;;
18140;SDS011;9196;49.194;12.526;2023-07-29T12:57:33;2.00;;;1.90;;
18140;SDS011;9196;49.194;12.526;2023-07-29T13:00:02;1.83;;;1.73;;
18140;SDS011;9196;49.194;12.526;2023-07-29T13:02:29;1.60;;;1.50;;
18140;SDS011;9196;49.194;12.526;2023-07-29T13:04:57;1.80;;;1.77;;
18140;SDS011;9196;49.194;12.526;2023-07-29T13:07:24;5.10;;;2.53;;
18140;SDS011;9196;49.194;12.526;2023-07-29T13:09:51;2.47;;;2.27;;
18140;SDS011;9196;49.194;12.526;2023-07-29T13:12:17;2.37;;;2.27;;
18140;SDS011;9196;49.194;12.526;2023-07-29T13:14:44;1.73;;;1.63;;
18140;SDS011;9196;49.194;12.526;2023-07-29T13:17:12;2.13;;;2.03;;
18140;SDS011;9196;49.194;12.526;2023-07-29T13:19:39;2.07;;;1.97;;
18140;SDS011;9196;49.194;12.526;2023-07-29T13:22:06;1.97;;;1.87;;
18140;SDS011;9196;49.194;12.526;2023-07-29T13:24:33;2.27;;;2.17;;
18140;SDS011;9196;49.194;12.526;2023-07-29T13:27:00;2.20;;;2.10;;
18140;SDS011;9196;49.194;12.526;2023-07-29T13:29:27;2.93;;;2.73;;
18140;SDS011;9196;49.194;12.526;2023-07-29T13:31:53;8.50;;;3.00;;
18140;SDS011;9196;49.194;12.526;2023-07-29T13:34:22;3.43;;;3.13;;
18140;SDS011;9196;49.194;12.526;2023-07-29T13:36:48;4.07;;;2.93;;
18140;SDS011;9196;49.194;12.526;2023-07-29T13:39:15;3.33;;;2.10;;
18140;SDS011;9196;49.194;12.526;2023-07-29T13:41:42;2.20;;;2.10;;
18140;SDS011;9196;49.194;12.526;2023-07-29T13:44:09;3.43;;;1.80;;
18140;SDS011;9196;49.194;12.526;2023-07-29T13:46:35;3.23;;;2.20;;
18140;SDS011;9196;49.194;12.526;2023-07-29T13:49:02;5.13;;;2.10;;
18140;SDS011;9196;49.194;12.526;2023-07-29T13:51:30;2.17;;;1.67;;
18140;SDS011;9196;49.194;12.526;2023-07-29T13:53:57;1.70;;;1.60;;
18140;SDS011;9196;49.194;12.526;2023-07-29T13:56:24;1.90;;;1.80;;
18140;SDS011;9196;49.194;12.526;2023-07-29T13:58:51;2.23;;;2.13;;
18140;SDS011;9196;49.194;12.526;2023-07-29T14:01:18;1.90;;;1.80;;
18140;SDS011;9196;49.194;12.526;2023-07-29T14:03:44;1.70;;;1.60;;
18140;SDS011;9196;49.194;12.526;2023-07-29T14:06:11;2.13;;;2.03;;
18140;SDS011;9196;49.194;12.526;2023-07-29T14:08:39;1.87;;;1.77;;
18140;SDS011;9196;49.194;12.526;2023-07-29T14:11:07;2.07;;;1.97;;
18140;SDS011;9196;49.194;12.526;2023-07-29T14:13:33;1.83;;;1.70;;
18140;SDS011;9196;49.194;12.526;2023-07-29T14:16:00;1.97;;;1.87;;
18140;SDS011;9196;49.194;12.526;2023-07-29T14:18:27;1.73;;;1.73;;
18140;SDS011;9196;49.194;12.526;2023-07-29T14:20:54;3.90;;;1.60;;
18140;SDS011;9196;49.194;12.526;2023-07-29T14:23:21;2.10;;;2.00;;
18140;SDS011;9196;49.194;12.526;2023-07-29T14:25:49;3.53;;;1.73;;
18140;SDS011;9196;49.194;12.526;2023-07-29T14:28:16;2.20;;;2.00;;
18140;SDS011;9196;49.194;12.526;2023-07-29T14:30:43;2.33;;;2.07;;
18140;SDS011;9196;49.194;12.526;2023-07-29T14:33:10;2.00;;;1.60;;
18140;SDS011;9196;49.194;12.526;2023-07-29T14:35:37;2.10;;;2.00;;
18140;SDS011;9196;49.194;12.526;2023-07-29T14:38:03;1.50;;;1.40;;
18140;SDS011;9196;49.194;12.526;2023-07-29T14:40:30;2.53;;;2.33;;
18140;SDS011;9196;49.194;12.526;2023-07-29T14:42:59;1.60;;;1.50;;
18140;SDS011;9196;49.194;12.526;2023-07-29T14:45:25;1.60;;;1.50;;
18140;SDS011;9196;49.194;12.526;2023-07-29T14:47:52;3.17;;;1.57;;
18140;SDS011;9196;49.194;12.526;2023-07-29T14:50:19;2.70;;;1.80;;